sensor_id;sensor_type;location;lat;lon;timestamp;P1;durP1;ratioP1;P2;durP2;ratioP2
3101;SDS011;1561;42.666;23.392;2023-06-26T00:00:54;27.38;;;24.20;;
3101;SDS011;1561;42.666;23.392;2023-06-26T00:03:22;25.02;;;22.33;;
3101;SDS011;1561;42.666;23.392;2023-06-26T00:05:55;25.85;;;23.05;;
3101;SDS011;1561;42.666;23.392;2023-06-26T00:08:25;25.65;;;22.15;;
3101;SDS011;1561;42.666;23.392;2023-06-26T00:10:54;25.15;;;22.50;;
3101;SDS011;1561;42.666;23.392;2023-06-26T00:13:26;25.17;;;22.58;;
3101;SDS011;1561;42.666;23.392;2023-06-26T00:15:55;25.02;;;22.45;;
3101;SDS011;1561;42.666;23.392;2023-06-26T00:18:22;23.55;;;21.05;;
3101;SDS011;1561;42.666;23.392;2023-06-26T00:20:49;22.52;;;20.13;;
3101;SDS011;1561;42.666;23.392;2023-06-26T00:23:26;23.85;;;21.38;;
3101;SDS011;1561;42.666;23.392;2023-06-26T00:26:05;23.15;;;20.75;;
3101;SDS011;1561;42.666;23.392;2023-06-26T00:28:34;23.58;;;21.15;;
3101;SDS011;1561;42.666;23.392;2023-06-26T00:31:02;24.30;;;21.33;;
3101;SDS011;1561;42.666;23.392;2023-06-26T00:33:32;22.80;;;20.58;;
3101;SDS011;1561;42.666;23.392;2023-06-26T00:36:08;22.48;;;20.08;;
3101;SDS011;1561;42.666;23.392;2023-06-26T00:38:35;22.48;;;20.27;;
3101;SDS011;1561;42.666;23.392;2023-06-26T00:41:02;21.10;;;19.02;;
3101;SDS011;1561;42.666;23.392;2023-06-26T00:43:40;22.05;;;19.45;;
3101;SDS011;1561;42.666;23.392;2023-06-26T00:46:12;23.10;;;20.65;;
3101;SDS011;1561;42.666;23.392;2023-06-26T00:48:42;20.75;;;18.38;;
3101;SDS011;1561;42.666;23.392;2023-06-26T00:51:15;21.75;;;18.88;;
3101;SDS011;1561;42.666;23.392;2023-06-26T00:53:43;20.25;;;18.25;;
3101;SDS011;1561;42.666;23.392;2023-06-26T00:56:13;21.25;;;18.95;;
3101;SDS011;1561;42.666;23.392;2023-06-26T00:58:41;20.60;;;18.45;;
3101;SDS011;1561;42.666;23.392;2023-06-26T01:01:09;21.67;;;17.80;;
3101;SDS011;1561;42.666;23.392;2023-06-26T01:03:41;20.33;;;18.17;;
3101;SDS011;1561;42.666;23.392;2023-06-26T01:06:10;20.55;;;18.50;;
3101;SDS011;1561;42.666;23.392;2023-06-26T01:08:42;19.50;;;17.70;;
3101;SDS011;1561;42.666;23.392;2023-06-26T01:11:11;19.77;;;17.80;;
3101;SDS011;1561;42.666;23.392;2023-06-26T01:13:43;19.63;;;17.42;;
3101;SDS011;1561;42.666;23.392;2023-06-26T01:16:12;20.17;;;18.33;;
3101;SDS011;1561;42.666;23.392;2023-06-26T01:18:41;18.77;;;16.98;;
3101;SDS011;1561;42.666;23.392;2023-06-26T01:21:14;19.63;;;17.52;;
3101;SDS011;1561;42.666;23.392;2023-06-26T01:23:49;21.40;;;18.42;;
3101;SDS011;1561;42.666;23.392;2023-06-26T01:26:28;18.77;;;16.88;;
3101;SDS011;1561;42.666;23.392;2023-06-26T01:28:57;19.20;;;17.40;;
3101;SDS011;1561;42.666;23.392;2023-06-26T01:31:27;18.52;;;16.70;;
3101;SDS011;1561;42.666;23.392;2023-06-26T01:33:58;21.60;;;19.30;;
3101;SDS011;1561;42.666;23.392;2023-06-26T01:36:28;18.60;;;16.83;;
3101;SDS011;1561;42.666;23.392;2023-06-26T01:38:57;19.15;;;17.25;;
3101;SDS011;1561;42.666;23.392;2023-06-26T01:41:24;19.67;;;17.83;;
3101;SDS011;1561;42.666;23.392;2023-06-26T01:44:04;19.85;;;17.27;;
3101;SDS011;1561;42.666;23.392;2023-06-26T01:46:46;19.73;;;17.77;;
3101;SDS011;1561;42.666;23.392;2023-06-26T01:49:20;19.70;;;18.00;;
3101;SDS011;1561;42.666;23.392;2023-06-26T01:51:52;19.38;;;17.48;;
3101;SDS011;1561;42.666;23.392;2023-06-26T01:54:42;20.08;;;17.92;;
3101;SDS011;1561;42.666;23.392;2023-06-26T01:57:19;19.52;;;17.58;;
3101;SDS011;1561;42.666;23.392;2023-06-26T01:59:51;21.25;;;19.05;;
3101;SDS011;1561;42.666;23.392;2023-06-26T02:02:19;20.10;;;18.08;;
3101;SDS011;1561;42.666;23.392;2023-06-26T02:04:50;20.30;;;18.30;;
3101;SDS011;1561;42.666;23.392;2023-06-26T02:07:18;20.63;;;18.73;;
3101;SDS011;1561;42.666;23.392;2023-06-26T02:09:47;19.15;;;17.35;;
3101;SDS011;1561;42.666;23.392;2023-06-26T02:12:15;20.30;;;18.30;;
3101;SDS011;1561;42.666;23.392;2023-06-26T02:14:46;21.73;;;18.85;;
3101;SDS011;1561;42.666;23.392;2023-06-26T02:17:15;19.58;;;17.58;;
3101;SDS011;1561;42.666;23.392;2023-06-26T02:19:42;21.60;;;19.40;;
3101;SDS011;1561;42.666;23.392;2023-06-26T02:22:13;19.92;;;18.00;;
3101;SDS011;1561;42.666;23.392;2023-06-26T02:24:41;21.50;;;18.45;;
3101;SDS011;1561;42.666;23.392;2023-06-26T02:27:09;19.42;;;17.58;;
3101;SDS011;1561;42.666;23.392;2023-06-26T02:29:38;21.33;;;19.25;;
3101;SDS011;1561;42.666;23.392;2023-06-26T02:32:15;19.83;;;18.00;;
3101;SDS011;1561;42.666;23.392;2023-06-26T02:34:45;20.13;;;18.13;;
3101;SDS011;1561;42.666;23.392;2023-06-26T02:37:18;21.60;;;19.52;;
3101;SDS011;1561;42.666;23.392;2023-06-26T02:39:46;21.58;;;19.33;;
3101;SDS011;1561;42.666;23.392;2023-06-26T02:42:13;20.42;;;18.50;;
3101;SDS011;1561;42.666;23.392;2023-06-26T02:44:43;21.45;;;19.55;;
3101;SDS011;1561;42.666;23.392;2023-06-26T02:47:13;22.40;;;20.00;;
3101;SDS011;1561;42.666;23.392;2023-06-26T02:49:40;23.77;;;21.30;;
3101;SDS011;1561;42.666;23.392;2023-06-26T02:52:07;22.38;;;20.17;;
3101;SDS011;1561;42.666;23.392;2023-06-26T02:54:36;24.20;;;21.63;;
3101;SDS011;1561;42.666;23.392;2023-06-26T02:57:04;23.90;;;21.35;;
3101;SDS011;1561;42.666;23.392;2023-06-26T02:59:33;24.08;;;21.20;;
3101;SDS011;1561;42.666;23.392;2023-06-26T03:02:01;25.30;;;22.80;;
3101;SDS011;1561;42.666;23.392;2023-06-26T03:04:31;25.27;;;22.70;;
3101;SDS011;1561;42.666;23.392;2023-06-26T03:07:01;25.13;;;22.40;;
3101;SDS011;1561;42.666;23.392;2023-06-26T03:09:31;24.67;;;22.27;;
3101;SDS011;1561;42.666;23.392;2023-06-26T03:11:59;25.42;;;23.02;;
3101;SDS011;1561;42.666;23.392;2023-06-26T03:14:27;26.40;;;23.63;;
3101;SDS011;1561;42.666;23.392;2023-06-26T03:16:58;26.45;;;23.63;;
3101;SDS011;1561;42.666;23.392;2023-06-26T03:19:29;26.80;;;24.15;;
3101;SDS011;1561;42.666;23.392;2023-06-26T03:22:04;26.45;;;23.70;;
3101;SDS011;1561;42.666;23.392;2023-06-26T03:24:31;27.17;;;24.45;;
3101;SDS011;1561;42.666;23.392;2023-06-26T03:27:01;25.60;;;23.10;;
3101;SDS011;1561;42.666;23.392;2023-06-26T03:29:31;25.58;;;23.00;;
3101;SDS011;1561;42.666;23.392;2023-06-26T03:32:00;27.38;;;24.58;;
3101;SDS011;1561;42.666;23.392;2023-06-26T03:34:32;25.48;;;22.88;;
3101;SDS011;1561;42.666;23.392;2023-06-26T03:36:59;23.88;;;21.50;;
3101;SDS011;1561;42.666;23.392;2023-06-26T03:39:29;25.25;;;22.83;;
3101;SDS011;1561;42.666;23.392;2023-06-26T03:41:57;29.67;;;21.33;;
3101;SDS011;1561;42.666;23.392;2023-06-26T03:44:33;28.33;;;22.55;;
3101;SDS011;1561;42.666;23.392;2023-06-26T03:47:02;25.08;;;22.45;;
3101;SDS011;1561;42.666;23.392;2023-06-26T03:49:34;24.27;;;22.08;;
3101;SDS011;1561;42.666;23.392;2023-06-26T03:52:02;24.98;;;22.52;;
3101;SDS011;1561;42.666;23.392;2023-06-26T03:54:33;26.85;;;24.00;;
3101;SDS011;1561;42.666;23.392;2023-06-26T03:57:05;25.13;;;22.73;;
3101;SDS011;1561;42.666;23.392;2023-06-26T03:59:33;26.02;;;23.20;;
3101;SDS011;1561;42.666;23.392;2023-06-26T04:02:02;27.00;;;24.20;;
3101;SDS011;1561;42.666;23.392;2023-06-26T04:04:30;26.33;;;23.35;;
3101;SDS011;1561;42.666;23.392;2023-06-26T04:07:00;26.13;;;23.42;;
3101;SDS011;1561;42.666;23.392;2023-06-26T04:09:33;26.58;;;24.05;;
3101;SDS011;1561;42.666;23.392;2023-06-26T04:12:02;26.17;;;23.58;;
3101;SDS011;1561;42.666;23.392;2023-06-26T04:14:31;25.25;;;22.45;;
3101;SDS011;1561;42.666;23.392;2023-06-26T04:17:01;24.25;;;21.90;;
3101;SDS011;1561;42.666;23.392;2023-06-26T04:19:28;24.52;;;22.23;;
3101;SDS011;1561;42.666;23.392;2023-06-26T04:21:58;23.38;;;21.30;;
3101;SDS011;1561;42.666;23.392;2023-06-26T04:24:29;23.60;;;21.27;;
3101;SDS011;1561;42.666;23.392;2023-06-26T04:26:58;23.17;;;21.10;;
3101;SDS011;1561;42.666;23.392;2023-06-26T04:29:28;25.38;;;22.90;;
3101;SDS011;1561;42.666;23.392;2023-06-26T04:31:59;22.15;;;20.00;;
3101;SDS011;1561;42.666;23.392;2023-06-26T04:34:28;23.90;;;21.50;;
3101;SDS011;1561;42.666;23.392;2023-06-26T04:37:00;22.88;;;20.83;;
3101;SDS011;1561;42.666;23.392;2023-06-26T04:39:29;22.10;;;19.90;;
3101;SDS011;1561;42.666;23.392;2023-06-26T04:42:00;22.13;;;19.80;;
3101;SDS011;1561;42.666;23.392;2023-06-26T04:44:27;24.00;;;21.77;;
3101;SDS011;1561;42.666;23.392;2023-06-26T04:46:54;23.15;;;20.70;;
3101;SDS011;1561;42.666;23.392;2023-06-26T04:49:25;24.38;;;22.10;;
3101;SDS011;1561;42.666;23.392;2023-06-26T04:51:53;22.85;;;20.75;;
3101;SDS011;1561;42.666;23.392;2023-06-26T04:54:21;23.90;;;21.13;;
3101;SDS011;1561;42.666;23.392;2023-06-26T04:56:50;25.05;;;22.75;;
3101;SDS011;1561;42.666;23.392;2023-06-26T04:59:19;23.85;;;21.40;;
3101;SDS011;1561;42.666;23.392;2023-06-26T05:01:50;23.83;;;21.35;;
3101;SDS011;1561;42.666;23.392;2023-06-26T05:04:19;24.30;;;21.90;;
3101;SDS011;1561;42.666;23.392;2023-06-26T05:06:49;25.40;;;22.40;;
3101;SDS011;1561;42.666;23.392;2023-06-26T05:09:17;24.80;;;22.40;;
3101;SDS011;1561;42.666;23.392;2023-06-26T05:11:46;24.02;;;21.55;;
3101;SDS011;1561;42.666;23.392;2023-06-26T05:14:13;23.08;;;20.58;;
3101;SDS011;1561;42.666;23.392;2023-06-26T05:16:49;22.15;;;20.05;;
3101;SDS011;1561;42.666;23.392;2023-06-26T05:19:19;25.40;;;22.90;;
3101;SDS011;1561;42.666;23.392;2023-06-26T05:21:53;25.08;;;22.63;;
3101;SDS011;1561;42.666;23.392;2023-06-26T05:24:23;27.30;;;21.98;;
3101;SDS011;1561;42.666;23.392;2023-06-26T05:26:56;23.80;;;20.88;;
3101;SDS011;1561;42.666;23.392;2023-06-26T05:29:24;27.42;;;22.60;;
3101;SDS011;1561;42.666;23.392;2023-06-26T05:31:54;23.58;;;21.38;;
3101;SDS011;1561;42.666;23.392;2023-06-26T05:34:22;24.38;;;21.90;;
3101;SDS011;1561;42.666;23.392;2023-06-26T05:36:55;22.33;;;20.13;;
3101;SDS011;1561;42.666;23.392;2023-06-26T05:39:25;23.40;;;21.00;;
3101;SDS011;1561;42.666;23.392;2023-06-26T05:41:54;23.45;;;20.95;;
3101;SDS011;1561;42.666;23.392;2023-06-26T05:44:25;21.27;;;19.38;;
3101;SDS011;1561;42.666;23.392;2023-06-26T05:46:53;22.48;;;20.17;;
3101;SDS011;1561;42.666;23.392;2023-06-26T05:49:26;22.85;;;20.73;;
3101;SDS011;1561;42.666;23.392;2023-06-26T05:51:53;22.05;;;19.80;;
3101;SDS011;1561;42.666;23.392;2023-06-26T05:54:22;21.52;;;19.58;;
3101;SDS011;1561;42.666;23.392;2023-06-26T05:56:50;21.33;;;19.42;;
3101;SDS011;1561;42.666;23.392;2023-06-26T05:59:23;22.02;;;19.77;;
3101;SDS011;1561;42.666;23.392;2023-06-26T06:01:54;20.27;;;18.40;;
3101;SDS011;1561;42.666;23.392;2023-06-26T06:04:23;20.40;;;18.42;;
3101;SDS011;1561;42.666;23.392;2023-06-26T06:06:51;22.58;;;20.17;;
3101;SDS011;1561;42.666;23.392;2023-06-26T06:09:18;21.10;;;19.10;;
3101;SDS011;1561;42.666;23.392;2023-06-26T06:11:46;20.45;;;18.70;;
3101;SDS011;1561;42.666;23.392;2023-06-26T06:14:13;18.90;;;17.17;;
3101;SDS011;1561;42.666;23.392;2023-06-26T06:16:42;19.40;;;17.15;;
3101;SDS011;1561;42.666;23.392;2023-06-26T06:19:13;20.50;;;18.55;;
3101;SDS011;1561;42.666;23.392;2023-06-26T06:21:41;18.67;;;16.98;;
3101;SDS011;1561;42.666;23.392;2023-06-26T06:24:10;19.30;;;17.52;;
3101;SDS011;1561;42.666;23.392;2023-06-26T06:26:37;19.23;;;17.52;;
3101;SDS011;1561;42.666;23.392;2023-06-26T06:29:07;18.63;;;16.80;;
3101;SDS011;1561;42.666;23.392;2023-06-26T06:31:44;18.05;;;16.45;;
3101;SDS011;1561;42.666;23.392;2023-06-26T06:34:15;18.50;;;16.55;;
3101;SDS011;1561;42.666;23.392;2023-06-26T06:36:43;20.00;;;18.20;;
3101;SDS011;1561;42.666;23.392;2023-06-26T06:39:12;19.65;;;17.67;;
3101;SDS011;1561;42.666;23.392;2023-06-26T06:41:43;18.77;;;16.98;;
3101;SDS011;1561;42.666;23.392;2023-06-26T06:44:15;18.33;;;16.52;;
3101;SDS011;1561;42.666;23.392;2023-06-26T06:46:45;18.15;;;16.55;;
3101;SDS011;1561;42.666;23.392;2023-06-26T06:49:18;17.20;;;15.60;;
3101;SDS011;1561;42.666;23.392;2023-06-26T06:51:45;17.27;;;15.77;;
3101;SDS011;1561;42.666;23.392;2023-06-26T06:54:12;15.32;;;14.02;;
3101;SDS011;1561;42.666;23.392;2023-06-26T06:56:40;15.52;;;14.23;;
3101;SDS011;1561;42.666;23.392;2023-06-26T06:59:08;15.63;;;14.35;;
3101;SDS011;1561;42.666;23.392;2023-06-26T07:01:38;14.77;;;13.55;;
3101;SDS011;1561;42.666;23.392;2023-06-26T07:04:06;12.45;;;11.45;;
3101;SDS011;1561;42.666;23.392;2023-06-26T07:06:38;13.52;;;12.43;;
3101;SDS011;1561;42.666;23.392;2023-06-26T07:09:06;14.63;;;13.13;;
3101;SDS011;1561;42.666;23.392;2023-06-26T07:11:33;13.27;;;12.18;;
3101;SDS011;1561;42.666;23.392;2023-06-26T07:14:04;15.00;;;13.52;;
3101;SDS011;1561;42.666;23.392;2023-06-26T07:16:31;13.40;;;12.20;;
3101;SDS011;1561;42.666;23.392;2023-06-26T07:18:59;13.07;;;11.98;;
3101;SDS011;1561;42.666;23.392;2023-06-26T07:21:30;12.77;;;11.65;;
3101;SDS011;1561;42.666;23.392;2023-06-26T07:24:01;12.50;;;11.27;;
3101;SDS011;1561;42.666;23.392;2023-06-26T07:26:29;12.68;;;11.60;;
3101;SDS011;1561;42.666;23.392;2023-06-26T07:28:59;12.45;;;11.32;;
3101;SDS011;1561;42.666;23.392;2023-06-26T07:31:27;11.52;;;10.63;;
3101;SDS011;1561;42.666;23.392;2023-06-26T07:33:54;12.00;;;10.90;;
3101;SDS011;1561;42.666;23.392;2023-06-26T07:36:22;11.20;;;10.27;;
3101;SDS011;1561;42.666;23.392;2023-06-26T07:38:49;12.05;;;11.05;;
3101;SDS011;1561;42.666;23.392;2023-06-26T07:41:19;10.15;;;9.23;;
3101;SDS011;1561;42.666;23.392;2023-06-26T07:43:48;11.15;;;10.15;;
3101;SDS011;1561;42.666;23.392;2023-06-26T07:46:18;11.05;;;9.90;;
3101;SDS011;1561;42.666;23.392;2023-06-26T07:48:52;12.07;;;10.82;;
3101;SDS011;1561;42.666;23.392;2023-06-26T07:51:20;10.20;;;9.45;;
3101;SDS011;1561;42.666;23.392;2023-06-26T07:53:47;10.60;;;9.80;;
3101;SDS011;1561;42.666;23.392;2023-06-26T07:56:15;10.45;;;9.57;;
3101;SDS011;1561;42.666;23.392;2023-06-26T07:58:45;11.27;;;9.25;;
3101;SDS011;1561;42.666;23.392;2023-06-26T08:01:12;8.63;;;7.93;;
3101;SDS011;1561;42.666;23.392;2023-06-26T08:03:40;7.90;;;7.18;;
3101;SDS011;1561;42.666;23.392;2023-06-26T08:06:10;8.70;;;8.00;;
3101;SDS011;1561;42.666;23.392;2023-06-26T08:08:39;10.50;;;9.50;;
3101;SDS011;1561;42.666;23.392;2023-06-26T08:11:07;8.00;;;7.20;;
3101;SDS011;1561;42.666;23.392;2023-06-26T08:13:36;7.68;;;7.07;;
3101;SDS011;1561;42.666;23.392;2023-06-26T08:16:10;11.75;;;8.65;;
3101;SDS011;1561;42.666;23.392;2023-06-26T08:18:39;9.30;;;8.30;;
3101;SDS011;1561;42.666;23.392;2023-06-26T08:21:06;8.95;;;8.10;;
3101;SDS011;1561;42.666;23.392;2023-06-26T08:23:35;9.20;;;8.50;;
3101;SDS011;1561;42.666;23.392;2023-06-26T08:26:02;10.73;;;9.73;;
3101;SDS011;1561;42.666;23.392;2023-06-26T08:28:29;8.73;;;8.00;;
3101;SDS011;1561;42.666;23.392;2023-06-26T08:30:56;8.82;;;8.23;;
3101;SDS011;1561;42.666;23.392;2023-06-26T08:33:27;12.18;;;10.95;;
3101;SDS011;1561;42.666;23.392;2023-06-26T08:35:54;12.23;;;11.18;;
3101;SDS011;1561;42.666;23.392;2023-06-26T08:38:21;26.08;;;20.85;;
3101;SDS011;1561;42.666;23.392;2023-06-26T08:40:49;20.48;;;15.00;;
3101;SDS011;1561;42.666;23.392;2023-06-26T08:43:20;10.68;;;9.57;;
3101;SDS011;1561;42.666;23.392;2023-06-26T08:45:47;9.15;;;8.45;;
3101;SDS011;1561;42.666;23.392;2023-06-26T08:48:17;15.38;;;11.50;;
3101;SDS011;1561;42.666;23.392;2023-06-26T09:10:03;27.02;;;20.90;;
3101;SDS011;1561;42.666;23.392;2023-06-26T09:12:31;9.52;;;8.82;;
3101;SDS011;1561;42.666;23.392;2023-06-26T09:14:58;11.70;;;10.60;;
3101;SDS011;1561;42.666;23.392;2023-06-26T09:17:29;8.63;;;7.75;;
3101;SDS011;1561;42.666;23.392;2023-06-26T09:19:56;10.00;;;8.90;;
3101;SDS011;1561;42.666;23.392;2023-06-26T09:22:23;10.20;;;8.05;;
3101;SDS011;1561;42.666;23.392;2023-06-26T09:24:51;9.23;;;8.52;;
3101;SDS011;1561;42.666;23.392;2023-06-26T09:27:21;8.73;;;7.90;;
3101;SDS011;1561;42.666;23.392;2023-06-26T09:29:50;8.40;;;7.60;;
3101;SDS011;1561;42.666;23.392;2023-06-26T09:32:17;9.38;;;8.10;;
3101;SDS011;1561;42.666;23.392;2023-06-26T09:34:44;9.00;;;8.20;;
3101;SDS011;1561;42.666;23.392;2023-06-26T09:37:12;7.88;;;7.30;;
3101;SDS011;1561;42.666;23.392;2023-06-26T09:39:50;9.18;;;8.00;;
3101;SDS011;1561;42.666;23.392;2023-06-26T09:42:19;8.55;;;7.85;;
3101;SDS011;1561;42.666;23.392;2023-06-26T09:44:47;10.65;;;7.50;;
3101;SDS011;1561;42.666;23.392;2023-06-26T09:47:18;7.93;;;7.22;;
3101;SDS011;1561;42.666;23.392;2023-06-26T09:49:48;8.82;;;8.02;;
3101;SDS011;1561;42.666;23.392;2023-06-26T09:52:18;8.30;;;7.60;;
3101;SDS011;1561;42.666;23.392;2023-06-26T09:57:49;10.27;;;8.07;;
3101;SDS011;1561;42.666;23.392;2023-06-26T10:00:17;8.25;;;7.55;;
3101;SDS011;1561;42.666;23.392;2023-06-26T10:02:45;10.57;;;8.45;;
3101;SDS011;1561;42.666;23.392;2023-06-26T10:05:12;7.43;;;6.82;;
3101;SDS011;1561;42.666;23.392;2023-06-26T10:07:44;8.77;;;7.88;;
3101;SDS011;1561;42.666;23.392;2023-06-26T10:10:17;8.00;;;7.20;;
3101;SDS011;1561;42.666;23.392;2023-06-26T10:12:48;8.57;;;7.57;;
3101;SDS011;1561;42.666;23.392;2023-06-26T10:15:21;8.18;;;7.38;;
3101;SDS011;1561;42.666;23.392;2023-06-26T10:17:52;8.45;;;7.75;;
3101;SDS011;1561;42.666;23.392;2023-06-26T10:20:23;11.10;;;7.65;;
3101;SDS011;1561;42.666;23.392;2023-06-26T10:22:53;6.82;;;6.30;;
3101;SDS011;1561;42.666;23.392;2023-06-26T10:25:26;8.00;;;7.30;;
3101;SDS011;1561;42.666;23.392;2023-06-26T10:28:00;10.10;;;8.52;;
3101;SDS011;1561;42.666;23.392;2023-06-26T10:30:30;9.43;;;8.43;;
3101;SDS011;1561;42.666;23.392;2023-06-26T10:33:03;10.48;;;9.45;;
3101;SDS011;1561;42.666;23.392;2023-06-26T10:35:32;9.32;;;8.40;;
3101;SDS011;1561;42.666;23.392;2023-06-26T10:38:00;10.00;;;8.95;;
3101;SDS011;1561;42.666;23.392;2023-06-26T10:40:39;9.90;;;9.00;;
3101;SDS011;1561;42.666;23.392;2023-06-26T10:43:09;9.57;;;8.77;;
3101;SDS011;1561;42.666;23.392;2023-06-26T10:45:45;10.13;;;9.13;;
3101;SDS011;1561;42.666;23.392;2023-06-26T10:48:18;9.45;;;8.65;;
3101;SDS011;1561;42.666;23.392;2023-06-26T10:50:54;12.23;;;10.40;;
3101;SDS011;1561;42.666;23.392;2023-06-26T10:53:24;10.95;;;9.90;;
3101;SDS011;1561;42.666;23.392;2023-06-26T10:55:59;9.55;;;8.75;;
3101;SDS011;1561;42.666;23.392;2023-06-26T10:58:29;16.50;;;10.70;;
3101;SDS011;1561;42.666;23.392;2023-06-26T11:03:47;10.82;;;9.73;;
3101;SDS011;1561;42.666;23.392;2023-06-26T11:06:17;21.70;;;15.57;;
3101;SDS011;1561;42.666;23.392;2023-06-26T11:08:46;9.48;;;8.57;;
3101;SDS011;1561;42.666;23.392;2023-06-26T11:11:16;34.00;;;24.65;;
3101;SDS011;1561;42.666;23.392;2023-06-26T11:13:45;10.73;;;9.73;;
3101;SDS011;1561;42.666;23.392;2023-06-26T11:16:14;28.10;;;20.30;;
3101;SDS011;1561;42.666;23.392;2023-06-26T11:18:46;12.98;;;10.70;;
3101;SDS011;1561;42.666;23.392;2023-06-26T11:21:14;12.52;;;9.10;;
3101;SDS011;1561;42.666;23.392;2023-06-26T11:23:45;10.75;;;9.68;;
3101;SDS011;1561;42.666;23.392;2023-06-26T11:26:17;17.60;;;12.88;;
3101;SDS011;1561;42.666;23.392;2023-06-26T11:28:49;11.40;;;8.57;;
3101;SDS011;1561;42.666;23.392;2023-06-26T11:31:30;10.60;;;7.82;;
3101;SDS011;1561;42.666;23.392;2023-06-26T11:33:59;8.70;;;7.80;;
3101;SDS011;1561;42.666;23.392;2023-06-26T11:36:34;8.27;;;7.57;;
3101;SDS011;1561;42.666;23.392;2023-06-26T11:39:03;8.07;;;7.47;;
3101;SDS011;1561;42.666;23.392;2023-06-26T11:41:33;8.35;;;7.75;;
3101;SDS011;1561;42.666;23.392;2023-06-26T11:44:04;7.78;;;7.07;;
3101;SDS011;1561;42.666;23.392;2023-06-26T11:46:33;11.00;;;7.05;;
3101;SDS011;1561;42.666;23.392;2023-06-26T11:49:03;6.97;;;6.38;;
3101;SDS011;1561;42.666;23.392;2023-06-26T11:51:30;7.40;;;6.80;;
3101;SDS011;1561;42.666;23.392;2023-06-26T11:54:00;8.23;;;7.35;;
3101;SDS011;1561;42.666;23.392;2023-06-26T11:56:27;7.88;;;7.18;;
3101;SDS011;1561;42.666;23.392;2023-06-26T11:58:55;8.23;;;7.47;;
3101;SDS011;1561;42.666;23.392;2023-06-26T12:01:25;7.30;;;6.70;;
3101;SDS011;1561;42.666;23.392;2023-06-26T12:03:54;7.95;;;7.25;;
3101;SDS011;1561;42.666;23.392;2023-06-26T12:06:25;7.03;;;6.53;;
3101;SDS011;1561;42.666;23.392;2023-06-26T12:08:53;8.27;;;7.47;;
3101;SDS011;1561;42.666;23.392;2023-06-26T12:11:22;7.22;;;6.72;;
3101;SDS011;1561;42.666;23.392;2023-06-26T12:13:51;8.45;;;7.65;;
3101;SDS011;1561;42.666;23.392;2023-06-26T12:16:18;14.48;;;12.07;;
3101;SDS011;1561;42.666;23.392;2023-06-26T12:18:47;7.78;;;7.07;;
3101;SDS011;1561;42.666;23.392;2023-06-26T12:21:28;10.20;;;8.38;;
3101;SDS011;1561;42.666;23.392;2023-06-26T12:24:13;19.60;;;14.63;;
3101;SDS011;1561;42.666;23.392;2023-06-26T12:26:42;8.73;;;7.25;;
3101;SDS011;1561;42.666;23.392;2023-06-26T12:29:10;7.07;;;6.47;;
3101;SDS011;1561;42.666;23.392;2023-06-26T12:31:39;9.38;;;7.65;;
3101;SDS011;1561;42.666;23.392;2023-06-26T12:34:10;9.10;;;8.30;;
3101;SDS011;1561;42.666;23.392;2023-06-26T12:36:41;11.63;;;7.35;;
3101;SDS011;1561;42.666;23.392;2023-06-26T12:39:09;22.65;;;16.30;;
3101;SDS011;1561;42.666;23.392;2023-06-26T12:41:47;8.13;;;7.32;;
3101;SDS011;1561;42.666;23.392;2023-06-26T12:44:17;8.18;;;7.30;;
3101;SDS011;1561;42.666;23.392;2023-06-26T12:46:48;6.72;;;6.32;;
3101;SDS011;1561;42.666;23.392;2023-06-26T12:49:17;7.13;;;6.53;;
3101;SDS011;1561;42.666;23.392;2023-06-26T12:51:45;8.05;;;7.35;;
3101;SDS011;1561;42.666;23.392;2023-06-26T12:54:15;8.80;;;7.97;;
3101;SDS011;1561;42.666;23.392;2023-06-26T12:56:42;8.65;;;7.85;;
3101;SDS011;1561;42.666;23.392;2023-06-26T12:59:10;7.72;;;7.03;;
3101;SDS011;1561;42.666;23.392;2023-06-26T13:01:38;8.30;;;7.60;;
3101;SDS011;1561;42.666;23.392;2023-06-26T13:04:07;9.88;;;9.00;;
3101;SDS011;1561;42.666;23.392;2023-06-26T13:06:39;8.60;;;7.90;;
3101;SDS011;1561;42.666;23.392;2023-06-26T13:09:06;9.45;;;8.38;;
3101;SDS011;1561;42.666;23.392;2023-06-26T13:11:38;8.80;;;8.02;;
3101;SDS011;1561;42.666;23.392;2023-06-26T13:14:07;7.32;;;6.63;;
3101;SDS011;1561;42.666;23.392;2023-06-26T13:16:50;8.80;;;7.95;;
3101;SDS011;1561;42.666;23.392;2023-06-26T13:19:19;8.20;;;7.40;;
3101;SDS011;1561;42.666;23.392;2023-06-26T13:21:49;8.93;;;8.02;;
3101;SDS011;1561;42.666;23.392;2023-06-26T13:24:17;9.63;;;7.40;;
3101;SDS011;1561;42.666;23.392;2023-06-26T13:26:44;9.82;;;8.80;;
3101;SDS011;1561;42.666;23.392;2023-06-26T13:29:13;7.28;;;6.65;;
3101;SDS011;1561;42.666;23.392;2023-06-26T13:31:41;8.50;;;7.80;;
3101;SDS011;1561;42.666;23.392;2023-06-26T13:34:09;9.55;;;8.50;;
3101;SDS011;1561;42.666;23.392;2023-06-26T13:36:46;9.23;;;8.48;;
3101;SDS011;1561;42.666;23.392;2023-06-26T13:39:29;11.57;;;8.35;;
3101;SDS011;1561;42.666;23.392;2023-06-26T13:41:59;8.90;;;7.93;;
3101;SDS011;1561;42.666;23.392;2023-06-26T13:44:26;7.85;;;7.25;;
3101;SDS011;1561;42.666;23.392;2023-06-26T13:46:54;8.30;;;7.60;;
3101;SDS011;1561;42.666;23.392;2023-06-26T13:49:22;8.63;;;7.93;;
3101;SDS011;1561;42.666;23.392;2023-06-26T13:51:49;9.65;;;8.23;;
3101;SDS011;1561;42.666;23.392;2023-06-26T13:54:17;9.23;;;8.32;;
3101;SDS011;1561;42.666;23.392;2023-06-26T13:56:45;8.30;;;7.55;;
3101;SDS011;1561;42.666;23.392;2023-06-26T13:59:14;9.20;;;8.40;;
3101;SDS011;1561;42.666;23.392;2023-06-26T14:01:43;8.93;;;8.18;;
3101;SDS011;1561;42.666;23.392;2023-06-26T14:04:14;9.88;;;7.20;;
3101;SDS011;1561;42.666;23.392;2023-06-26T14:06:45;11.57;;;8.82;;
3101;SDS011;1561;42.666;23.392;2023-06-26T14:09:12;8.75;;;8.00;;
3101;SDS011;1561;42.666;23.392;2023-06-26T14:11:41;8.50;;;7.68;;
3101;SDS011;1561;42.666;23.392;2023-06-26T14:14:08;7.97;;;7.38;;
3101;SDS011;1561;42.666;23.392;2023-06-26T14:16:35;7.75;;;7.15;;
3101;SDS011;1561;42.666;23.392;2023-06-26T14:19:02;9.38;;;8.38;;
3101;SDS011;1561;42.666;23.392;2023-06-26T14:21:40;8.20;;;7.53;;
3101;SDS011;1561;42.666;23.392;2023-06-26T14:24:09;9.57;;;7.85;;
3101;SDS011;1561;42.666;23.392;2023-06-26T14:26:41;8.25;;;7.65;;
3101;SDS011;1561;42.666;23.392;2023-06-26T14:29:13;9.82;;;8.93;;
3101;SDS011;1561;42.666;23.392;2023-06-26T14:31:42;9.38;;;8.48;;
3101;SDS011;1561;42.666;23.392;2023-06-26T14:34:09;8.95;;;8.10;;
3101;SDS011;1561;42.666;23.392;2023-06-26T14:36:36;9.82;;;8.88;;
3101;SDS011;1561;42.666;23.392;2023-06-26T14:39:04;8.23;;;7.43;;
3101;SDS011;1561;42.666;23.392;2023-06-26T14:41:31;12.25;;;9.10;;
3101;SDS011;1561;42.666;23.392;2023-06-26T14:44:00;11.98;;;8.73;;
3101;SDS011;1561;42.666;23.392;2023-06-26T14:46:30;9.55;;;8.65;;
3101;SDS011;1561;42.666;23.392;2023-06-26T14:48:58;9.43;;;8.55;;
3101;SDS011;1561;42.666;23.392;2023-06-26T14:51:27;9.27;;;8.35;;
3101;SDS011;1561;42.666;23.392;2023-06-26T14:53:56;9.82;;;9.02;;
3101;SDS011;1561;42.666;23.392;2023-06-26T14:56:23;10.27;;;9.27;;
3101;SDS011;1561;42.666;23.392;2023-06-26T14:58:51;8.75;;;7.85;;
3101;SDS011;1561;42.666;23.392;2023-06-26T15:01:21;8.48;;;7.75;;
3101;SDS011;1561;42.666;23.392;2023-06-26T15:03:49;7.72;;;6.97;;
3101;SDS011;1561;42.666;23.392;2023-06-26T15:06:16;7.50;;;6.90;;
3101;SDS011;1561;42.666;23.392;2023-06-26T15:08:43;8.35;;;7.43;;
3101;SDS011;1561;42.666;23.392;2023-06-26T15:11:11;7.40;;;6.70;;
3101;SDS011;1561;42.666;23.392;2023-06-26T15:13:38;8.35;;;7.65;;
3101;SDS011;1561;42.666;23.392;2023-06-26T15:16:25;7.97;;;7.28;;
3101;SDS011;1561;42.666;23.392;2023-06-26T15:18:53;7.53;;;6.63;;
3101;SDS011;1561;42.666;23.392;2023-06-26T15:21:23;7.40;;;6.60;;
3101;SDS011;1561;42.666;23.392;2023-06-26T15:23:50;7.70;;;7.10;;
3101;SDS011;1561;42.666;23.392;2023-06-26T15:26:19;7.13;;;6.53;;